createdAt,value
2022-10-09T00:01:07.842Z,48.77
2022-10-09T00:03:35.901Z,49.19
2022-10-09T00:06:03.146Z,48.79
2022-10-09T00:08:30.370Z,49.29
2022-10-09T00:10:57.196Z,49.17
2022-10-09T00:13:23.953Z,48.88
2022-10-09T00:15:50.731Z,48.78
2022-10-09T00:18:18.468Z,48.68
2022-10-09T00:20:46.624Z,48.97
2022-10-09T00:23:18.312Z,48.58
2022-10-09T00:25:59.619Z,48.82
2022-10-09T00:28:28.765Z,48.90
2022-10-09T00:30:55.903Z,48.66
2022-10-09T00:33:23.021Z,49.01
2022-10-09T00:35:49.727Z,49.00
2022-10-09T00:38:24.650Z,48.64
2022-10-09T00:40:53.255Z,48.57
2022-10-09T00:43:57.638Z,48.81
2022-10-09T00:46:27.437Z,48.70
2022-10-09T00:49:03.073Z,48.62
2022-10-09T00:51:30.791Z,48.94
2022-10-09T00:53:57.970Z,48.56
2022-10-09T00:56:25.535Z,48.49
2022-10-09T00:58:54.864Z,48.78
2022-10-09T01:01:21.844Z,48.67
2022-10-09T01:03:48.561Z,48.71
2022-10-09T01:06:29.943Z,48.84
2022-10-09T01:09:07.395Z,48.39
2022-10-09T01:11:49.278Z,48.75
2022-10-09T01:14:29.046Z,48.53
2022-10-09T01:17:18.992Z,48.73
2022-10-09T01:20:16.535Z,48.69
2022-10-09T01:23:07.720Z,48.56
2022-10-09T01:25:57.517Z,48.46
2022-10-09T01:28:29.128Z,48.57
2022-10-09T01:30:58.659Z,48.53
2022-10-09T01:33:26.672Z,48.38
2022-10-09T01:35:53.792Z,48.16
2022-10-09T01:38:20.722Z,48.02
2022-10-09T01:40:47.553Z,47.98
2022-10-09T01:43:14.403Z,48.04
2022-10-09T01:45:51.424Z,48.29
2022-10-09T01:48:25.162Z,47.73
2022-10-09T01:50:56.334Z,47.69
2022-10-09T01:53:24.328Z,47.99
2022-10-09T01:56:03.032Z,47.75
2022-10-09T01:58:42.223Z,47.89
2022-10-09T02:01:14.147Z,47.62
2022-10-09T02:03:43.009Z,47.51
2022-10-09T02:06:11.798Z,47.55
2022-10-09T02:08:39.386Z,47.49
2022-10-09T02:11:06.712Z,47.41
2022-10-09T02:13:34.644Z,47.63
2022-10-09T02:16:01.305Z,47.55
2022-10-09T02:18:40.492Z,47.55
2022-10-09T02:21:15.469Z,47.34
2022-10-09T02:23:43.428Z,47.04
2022-10-09T02:26:10.348Z,47.04
2022-10-09T02:28:37.596Z,47.18
2022-10-09T02:31:13.430Z,47.40
2022-10-09T02:33:40.196Z,47.28
2022-10-09T02:36:06.907Z,47.00
2022-10-09T02:38:33.629Z,47.01
2022-10-09T02:41:01.010Z,47.23
2022-10-09T02:43:28.291Z,46.80
2022-10-09T02:45:55.063Z,46.91
2022-10-09T02:48:21.816Z,46.78
2022-10-09T02:50:48.522Z,47.01
2022-10-09T02:53:15.302Z,46.95
2022-10-09T02:55:42.103Z,46.68
2022-10-09T02:58:08.832Z,46.60
2022-10-09T03:00:38.025Z,46.82
2022-10-09T03:03:05.007Z,46.77
2022-10-09T03:05:31.719Z,46.65
2022-10-09T03:07:58.764Z,46.56
2022-10-09T03:10:25.426Z,46.78
2022-10-09T03:12:52.261Z,46.73
2022-10-09T03:15:18.962Z,46.41
2022-10-09T03:17:45.706Z,46.52
2022-10-09T03:20:12.403Z,46.39
2022-10-09T03:22:39.163Z,46.59
2022-10-09T03:25:06.431Z,46.72
2022-10-09T03:27:33.235Z,46.68
2022-10-09T03:29:59.911Z,46.68
2022-10-09T03:32:26.814Z,46.38
2022-10-09T03:34:53.498Z,46.67
2022-10-09T03:37:20.373Z,46.45
2022-10-09T03:39:47.052Z,46.26
2022-10-09T03:42:13.896Z,46.47
2022-10-09T03:44:40.630Z,46.37
2022-10-09T03:47:07.394Z,46.31
2022-10-09T03:49:34.061Z,46.56
2022-10-09T03:52:00.827Z,46.61
2022-10-09T03:54:27.504Z,46.48
2022-10-09T03:56:54.245Z,46.25
2022-10-09T03:59:20.942Z,46.58
2022-10-09T04:01:47.696Z,46.05
2022-10-09T04:04:14.444Z,46.40
2022-10-09T04:06:41.324Z,46.43
2022-10-09T04:09:08.019Z,46.33
2022-10-09T04:11:34.803Z,46.44
2022-10-09T04:14:01.547Z,46.51
2022-10-09T04:16:28.346Z,46.24
2022-10-09T04:18:55.043Z,46.40
2022-10-09T04:21:21.767Z,46.23
2022-10-09T04:23:48.389Z,46.35
2022-10-09T04:26:15.121Z,46.20
2022-10-09T04:28:42.090Z,46.55
2022-10-09T04:31:08.954Z,46.07
2022-10-09T04:33:35.708Z,46.51
2022-10-09T04:36:02.435Z,46.25
2022-10-09T04:38:31.107Z,46.41
2022-10-09T04:41:02.054Z,46.28
2022-10-09T04:43:29.258Z,46.43
2022-10-09T04:45:56.332Z,46.39
2022-10-09T04:48:23.416Z,46.50
2022-10-09T04:50:50.143Z,46.36
2022-10-09T04:53:17.089Z,46.15
2022-10-09T04:55:44.522Z,46.17
2022-10-09T04:58:12.771Z,46.67
2022-10-09T05:00:43.377Z,46.39
2022-10-09T05:03:10.539Z,46.31
2022-10-09T05:05:37.539Z,46.40
2022-10-09T05:08:04.373Z,46.43
2022-10-09T05:10:34.209Z,46.53
2022-10-09T05:13:01.438Z,46.40
2022-10-09T05:15:28.252Z,46.34
2022-10-09T05:17:55.014Z,46.27
2022-10-09T05:20:21.877Z,46.60
2022-10-09T05:22:49.013Z,46.20
2022-10-09T05:25:15.884Z,46.52
2022-10-09T05:27:42.612Z,46.21
2022-10-09T05:30:10.004Z,46.45
2022-10-09T05:32:36.866Z,46.31
2022-10-09T05:35:04.427Z,46.45
2022-10-09T05:37:31.211Z,46.63
2022-10-09T05:39:57.906Z,46.15
2022-10-09T05:42:24.656Z,46.43
2022-10-09T05:44:51.322Z,46.46
2022-10-09T05:47:19.743Z,46.16
2022-10-09T05:49:46.731Z,46.39
2022-10-09T05:52:13.535Z,46.55
2022-10-09T05:54:41.983Z,46.32
2022-10-09T05:57:09.639Z,46.23
2022-10-09T05:59:36.248Z,45.64
2022-10-09T06:02:03.276Z,45.26
2022-10-09T06:04:30.057Z,45.93
2022-10-09T06:06:56.820Z,45.99
2022-10-09T06:09:25.550Z,46.07
2022-10-09T06:11:53.470Z,46.44
2022-10-09T06:14:24.592Z,46.54
2022-10-09T06:16:51.467Z,47.00
2022-10-09T06:19:19.430Z,47.09
2022-10-09T06:21:47.211Z,47.24
2022-10-09T06:24:27.353Z,47.16
2022-10-09T06:26:55.403Z,47.72
2022-10-09T06:29:22.080Z,47.50
2022-10-09T06:31:48.819Z,48.06
2022-10-09T06:34:15.464Z,48.23
2022-10-09T06:36:42.227Z,48.31
2022-10-09T06:39:10.262Z,48.33
2022-10-09T06:41:37.150Z,48.58
2022-10-09T06:44:17.937Z,48.55
2022-10-09T06:46:46.261Z,48.63
2022-10-09T06:49:13.244Z,48.83
2022-10-09T06:51:40.103Z,48.94
2022-10-09T06:54:12.331Z,48.66
2022-10-09T06:56:39.571Z,48.92
2022-10-09T06:59:07.564Z,49.23
2022-10-09T07:01:34.602Z,49.11
2022-10-09T07:04:07.090Z,48.78
2022-10-09T07:06:37.924Z,49.02
2022-10-09T07:09:05.809Z,49.11
2022-10-09T07:11:34.996Z,49.17
2022-10-09T07:14:03.676Z,49.47
2022-10-09T07:16:32.939Z,49.49
2022-10-09T07:19:06.477Z,49.36
2022-10-09T07:21:37.085Z,49.65
2022-10-09T07:24:04.736Z,50.07
2022-10-09T07:26:34.389Z,50.30
2022-10-09T07:29:01.927Z,50.40
2022-10-09T07:31:29.158Z,50.48
2022-10-09T07:33:57.040Z,50.92
2022-10-09T07:36:24.210Z,50.76
2022-10-09T07:38:53.031Z,50.77
2022-10-09T07:41:20.635Z,51.29
2022-10-09T07:43:47.686Z,51.47
2022-10-09T07:46:17.649Z,51.78
2022-10-09T07:48:45.166Z,51.82
2022-10-09T07:51:24.353Z,52.27
2022-10-09T07:53:52.614Z,52.83
2022-10-09T07:56:26.051Z,53.00
2022-10-09T07:58:55.042Z,52.56
2022-10-09T08:01:23.018Z,53.08
2022-10-09T08:03:50.358Z,52.93
2022-10-09T08:06:17.963Z,53.14
2022-10-09T08:08:45.168Z,52.93
2022-10-09T08:11:14.657Z,53.29
2022-10-09T08:13:41.992Z,53.13
2022-10-09T08:16:09.284Z,53.30
2022-10-09T08:18:36.522Z,53.88
2022-10-09T08:21:11.792Z,53.76
2022-10-09T08:23:38.825Z,53.91
2022-10-09T08:26:15.423Z,53.72
2022-10-09T08:28:43.042Z,53.80
2022-10-09T08:31:14.806Z,54.14
2022-10-09T08:33:41.807Z,53.69
2022-10-09T08:36:10.361Z,54.02
2022-10-09T08:38:47.275Z,53.66
2022-10-09T08:41:40.669Z,54.04
2022-10-09T08:44:25.459Z,54.28
2022-10-09T08:47:08.410Z,54.25
2022-10-09T08:49:56.607Z,54.04
2022-10-09T08:52:32.183Z,54.22
2022-10-09T08:55:22.192Z,54.24
2022-10-09T08:57:52.405Z,54.37
2022-10-09T09:00:32.326Z,54.34
2022-10-09T09:03:11.825Z,54.30
2022-10-09T09:06:07.708Z,54.53
2022-10-09T09:08:48.759Z,54.26
2022-10-09T09:11:36.561Z,54.17
2022-10-09T09:14:23.600Z,54.06
2022-10-09T09:16:55.273Z,54.45
2022-10-09T09:19:47.963Z,54.43
2022-10-09T09:22:16.193Z,54.23
2022-10-09T09:24:54.378Z,54.47
2022-10-09T09:27:33.747Z,54.42
2022-10-09T09:30:12.108Z,54.16
2022-10-09T09:32:45.207Z,54.11
2022-10-09T09:35:33.240Z,53.71
2022-10-09T09:38:00.241Z,53.31
2022-10-09T09:40:36.770Z,53.32
2022-10-09T09:43:13.436Z,53.29
2022-10-09T09:45:40.185Z,53.07
2022-10-09T09:48:13.261Z,53.62
2022-10-09T09:50:50.541Z,53.45
2022-10-09T09:53:36.714Z,53.16
2022-10-09T09:56:04.265Z,53.28
2022-10-09T09:58:35.062Z,52.77
2022-10-09T10:01:03.490Z,53.12
2022-10-09T10:03:31.083Z,52.68
2022-10-09T10:05:59.374Z,52.58
2022-10-09T10:08:26.085Z,52.63
2022-10-09T10:10:55.258Z,52.63
2022-10-09T10:13:43.916Z,52.25
2022-10-09T10:16:21.082Z,52.25
2022-10-09T10:18:47.939Z,52.05
2022-10-09T10:21:17.295Z,52.29
2022-10-09T10:23:49.278Z,52.14
2022-10-09T10:26:40.218Z,51.84
2022-10-09T10:29:15.237Z,51.87
2022-10-09T10:32:05.076Z,51.42
2022-10-09T10:34:46.540Z,51.71
2022-10-09T10:37:13.228Z,51.53
2022-10-09T10:39:45.815Z,51.22
2022-10-09T10:42:21.479Z,51.10
2022-10-09T10:44:55.154Z,50.83
2022-10-09T10:47:24.570Z,50.98
2022-10-09T10:49:51.331Z,50.55
2022-10-09T10:52:31.338Z,50.55
2022-10-09T10:55:11.672Z,50.64
2022-10-09T10:58:17.059Z,50.44
2022-10-09T11:00:51.986Z,50.19
2022-10-09T11:03:34.759Z,50.19
2022-10-09T11:06:12.599Z,49.72
2022-10-09T11:09:03.963Z,49.86
2022-10-09T11:11:33.611Z,49.48
2022-10-09T11:14:29.500Z,49.50
2022-10-09T11:17:10.134Z,49.36
2022-10-09T11:19:55.168Z,49.28
2022-10-09T11:22:36.923Z,49.40
2022-10-09T11:25:13.319Z,49.37
2022-10-09T11:27:46.579Z,49.66
2022-10-09T11:30:15.707Z,49.10
2022-10-09T11:33:17.087Z,49.33
2022-10-09T11:35:50.398Z,49.01
2022-10-09T11:38:31.786Z,49.00
2022-10-09T11:41:00.048Z,48.80
2022-10-09T11:43:35.031Z,49.08
2022-10-09T11:46:25.798Z,48.58
2022-10-09T11:49:21.759Z,48.87
2022-10-09T11:52:11.418Z,48.82
2022-10-09T11:54:38.155Z,48.39
2022-10-09T11:57:06.304Z,48.72
2022-10-09T11:59:36.787Z,48.43
2022-10-09T12:02:26.439Z,48.60
2022-10-09T12:04:56.217Z,48.07
2022-10-09T12:07:32.055Z,48.34
2022-10-09T12:10:21.405Z,48.03
2022-10-09T12:12:59.442Z,48.28
2022-10-09T12:15:48.625Z,47.75
2022-10-09T12:18:21.184Z,47.67
2022-10-09T12:20:49.335Z,47.93
2022-10-09T12:23:28.063Z,47.64
2022-10-09T12:25:55.771Z,47.32
2022-10-09T12:28:28.151Z,47.60
2022-10-09T12:30:56.080Z,47.13
2022-10-09T12:33:27.068Z,47.14
2022-10-09T12:36:15.524Z,47.15
2022-10-09T12:38:42.816Z,46.92
2022-10-09T12:41:25.814Z,47.34
2022-10-09T12:43:54.692Z,47.20
2022-10-09T12:46:34.104Z,46.73
2022-10-09T12:49:04.100Z,46.64
2022-10-09T12:51:32.756Z,46.48
2022-10-09T12:53:59.853Z,46.56
2022-10-09T12:56:32.976Z,46.70
2022-10-09T12:59:01.090Z,46.30
2022-10-09T13:01:28.547Z,46.43
2022-10-09T13:04:03.490Z,46.02
2022-10-09T13:06:38.316Z,46.35
2022-10-09T13:09:07.355Z,46.21
2022-10-09T13:11:37.216Z,45.76
2022-10-09T13:14:04.126Z,45.85
2022-10-09T13:16:41.851Z,46.06
2022-10-09T13:19:20.541Z,45.94
2022-10-09T13:21:47.337Z,45.82
2022-10-09T13:24:14.023Z,45.72
2022-10-09T13:26:42.957Z,45.51
2022-10-09T13:29:09.628Z,45.76
2022-10-09T13:31:37.051Z,45.35
2022-10-09T13:34:12.236Z,45.58
2022-10-09T13:36:39.123Z,45.64
2022-10-09T13:39:06.245Z,45.27
2022-10-09T13:41:33.302Z,45.25
2022-10-09T13:43:59.971Z,45.12
2022-10-09T13:46:26.859Z,45.02
2022-10-09T13:48:53.636Z,45.19
2022-10-09T13:51:20.414Z,45.25
2022-10-09T13:53:47.094Z,45.01
2022-10-09T13:56:13.837Z,44.75
2022-10-09T13:58:40.515Z,45.09
2022-10-09T14:01:08.592Z,44.64
2022-10-09T14:03:35.906Z,45.16
2022-10-09T14:06:08.322Z,44.66
2022-10-09T14:08:35.086Z,44.99
2022-10-09T14:11:02.920Z,44.71
2022-10-09T14:13:29.892Z,44.63
2022-10-09T14:15:56.591Z,45.17
2022-10-09T14:18:23.384Z,44.75
2022-10-09T14:20:50.211Z,44.75
2022-10-09T14:23:16.929Z,45.02
2022-10-09T14:25:43.564Z,44.63
2022-10-09T14:28:10.314Z,44.71
2022-10-09T14:30:40.580Z,44.95
2022-10-09T14:33:07.418Z,44.88
2022-10-09T14:35:34.147Z,44.77
2022-10-09T14:38:01.095Z,44.44
2022-10-09T14:40:27.733Z,44.91
2022-10-09T14:42:54.457Z,44.87
2022-10-09T14:45:21.178Z,44.52
2022-10-09T14:47:47.912Z,44.87
2022-10-09T14:50:14.626Z,44.43
2022-10-09T14:52:45.661Z,44.93
2022-10-09T14:55:13.863Z,45.02
2022-10-09T14:57:40.519Z,44.83
2022-10-09T15:00:08.815Z,45.06
2022-10-09T15:02:35.575Z,44.88
2022-10-09T15:05:02.411Z,45.09
2022-10-09T15:07:29.266Z,45.16
2022-10-09T15:09:56.959Z,45.63
2022-10-09T15:12:23.916Z,45.37
2022-10-09T15:14:52.204Z,45.48
2022-10-09T15:17:18.880Z,45.70
2022-10-09T15:19:45.612Z,46.11
2022-10-09T15:22:12.304Z,46.00
2022-10-09T15:24:38.957Z,46.11
2022-10-09T15:27:05.767Z,45.83
2022-10-09T15:29:32.453Z,46.02
2022-10-09T15:31:59.440Z,46.44
2022-10-09T15:34:26.864Z,46.50
2022-10-09T15:36:53.601Z,46.91
2022-10-09T15:39:20.367Z,47.02
2022-10-09T15:41:47.149Z,47.04
2022-10-09T15:44:17.682Z,46.61
2022-10-09T15:46:45.022Z,47.20
2022-10-09T15:49:12.191Z,47.12
2022-10-09T15:51:38.953Z,47.53
2022-10-09T15:54:06.222Z,47.70
2022-10-09T15:56:40.300Z,47.35
2022-10-09T15:59:12.690Z,47.49
2022-10-09T16:01:39.633Z,47.69
2022-10-09T16:04:06.448Z,47.93
2022-10-09T16:06:33.248Z,48.09
2022-10-09T16:09:00.943Z,48.50
2022-10-09T16:11:27.753Z,48.36
2022-10-09T16:13:56.039Z,48.57
2022-10-09T16:16:26.097Z,49.21
2022-10-09T16:18:52.978Z,49.23
2022-10-09T16:21:24.499Z,49.25
2022-10-09T16:23:57.386Z,49.77
2022-10-09T16:26:26.555Z,49.98
2022-10-09T16:28:53.315Z,50.32
2022-10-09T16:31:29.026Z,50.55
2022-10-09T16:33:56.446Z,50.79
2022-10-09T16:36:23.110Z,50.97
2022-10-09T16:38:49.842Z,51.19
2022-10-09T16:41:18.966Z,51.00
2022-10-09T16:43:47.994Z,51.52
2022-10-09T16:46:25.538Z,51.81
2022-10-09T16:48:53.391Z,51.66
2022-10-09T16:51:22.682Z,52.23
2022-10-09T16:53:53.331Z,52.41
2022-10-09T16:56:22.772Z,52.46
2022-10-09T16:58:49.469Z,52.64
2022-10-09T17:01:16.261Z,52.40
2022-10-09T17:03:43.016Z,52.52
2022-10-09T17:06:12.527Z,52.68
2022-10-09T17:08:39.591Z,53.04
2022-10-09T17:11:10.579Z,53.06
2022-10-09T17:13:37.920Z,53.25
2022-10-09T17:16:09.024Z,53.33
2022-10-09T17:18:36.396Z,53.03
2022-10-09T17:21:05.324Z,53.32
2022-10-09T17:23:32.443Z,53.03
2022-10-09T17:26:00.495Z,53.05
2022-10-09T17:28:27.456Z,53.05
2022-10-09T17:30:54.182Z,53.46
2022-10-09T17:33:23.356Z,53.38
2022-10-09T17:35:50.539Z,53.79
2022-10-09T17:38:17.282Z,54.05
2022-10-09T17:40:44.147Z,54.26
2022-10-09T17:43:11.035Z,54.07
2022-10-09T17:45:42.039Z,54.23
2022-10-09T17:48:10.116Z,53.96
2022-10-09T17:50:36.951Z,53.75
2022-10-09T17:53:04.124Z,54.23
2022-10-09T17:55:31.196Z,53.87
2022-10-09T17:57:57.956Z,53.85
2022-10-09T18:00:24.592Z,53.67
2022-10-09T18:02:51.344Z,53.70
2022-10-09T18:05:18.127Z,53.54
2022-10-09T18:07:44.845Z,53.83
2022-10-09T18:10:11.520Z,53.36
2022-10-09T18:12:38.500Z,53.29
2022-10-09T18:15:05.460Z,53.57
2022-10-09T18:17:34.405Z,53.12
2022-10-09T18:20:01.079Z,53.36
2022-10-09T18:22:27.826Z,53.15
2022-10-09T18:24:54.452Z,53.35
2022-10-09T18:27:21.459Z,52.96
2022-10-09T18:29:48.331Z,53.14
2022-10-09T18:32:15.258Z,53.14
2022-10-09T18:34:46.248Z,52.86
2022-10-09T18:37:13.837Z,52.91
2022-10-09T18:39:40.634Z,52.94
2022-10-09T18:42:07.599Z,52.70
2022-10-09T18:44:40.374Z,52.94
2022-10-09T18:47:17.786Z,52.63
2022-10-09T18:49:56.966Z,52.64
2022-10-09T18:52:37.013Z,52.86
2022-10-09T18:55:06.806Z,52.65
2022-10-09T18:57:40.605Z,52.65
2022-10-09T19:00:09.073Z,52.38
2022-10-09T19:05:10.658Z,52.24
2022-10-09T19:07:41.747Z,52.22
2022-10-09T19:10:11.331Z,52.21
2022-10-09T19:12:39.729Z,52.06
2022-10-09T19:15:11.718Z,52.04
2022-10-09T19:17:39.664Z,52.13
2022-10-09T19:20:06.963Z,52.32
2022-10-09T19:22:33.688Z,51.99
2022-10-09T19:25:01.311Z,52.03
2022-10-09T19:27:28.331Z,51.89
2022-10-09T19:29:55.031Z,52.20
2022-10-09T19:32:23.978Z,51.75
2022-10-09T19:34:50.898Z,52.11
2022-10-09T19:37:17.635Z,52.19
2022-10-09T19:39:48.491Z,51.77
2022-10-09T19:42:18.655Z,51.84
2022-10-09T19:44:46.079Z,51.82
2022-10-09T19:47:13.843Z,51.85
2022-10-09T19:49:40.696Z,51.61
2022-10-09T19:52:07.791Z,52.06
2022-10-09T19:54:35.480Z,51.95
2022-10-09T19:57:02.430Z,52.03
2022-10-09T19:59:29.218Z,51.68
2022-10-09T20:01:57.624Z,52.10
2022-10-09T20:04:24.857Z,51.78
2022-10-09T20:06:51.801Z,51.67
2022-10-09T20:09:18.687Z,51.58
2022-10-09T20:11:45.416Z,51.89
2022-10-09T20:14:12.162Z,51.82
2022-10-09T20:16:39.144Z,51.36
2022-10-09T20:19:05.926Z,51.62
2022-10-09T20:21:33.727Z,51.68
2022-10-09T20:24:01.402Z,51.79
2022-10-09T20:26:29.830Z,51.37
2022-10-09T20:28:56.671Z,51.84
2022-10-09T20:31:25.482Z,51.64
2022-10-09T20:33:53.282Z,51.47
2022-10-09T20:36:21.167Z,51.49
2022-10-09T20:38:47.915Z,51.58
2022-10-09T20:41:14.965Z,51.58
2022-10-09T20:43:41.955Z,51.30
2022-10-09T20:46:10.527Z,51.29
2022-10-09T20:48:37.252Z,51.46
2022-10-09T20:51:04.647Z,51.41
2022-10-09T20:53:31.579Z,51.48
2022-10-09T20:56:02.383Z,51.25
2022-10-09T20:58:29.344Z,51.33
2022-10-09T21:00:56.342Z,51.38
2022-10-09T21:03:23.287Z,51.28
2022-10-09T21:05:50.096Z,51.39
2022-10-09T21:08:16.928Z,51.25
2022-10-09T21:10:47.642Z,51.55
2022-10-09T21:13:14.619Z,51.25
2022-10-09T21:15:43.725Z,51.58
2022-10-09T21:18:11.197Z,51.41
2022-10-09T21:20:43.179Z,51.59
2022-10-09T21:23:11.252Z,51.10
2022-10-09T21:25:38.484Z,50.95
2022-10-09T21:28:06.024Z,51.22
2022-10-09T21:30:41.206Z,51.03
2022-10-09T21:33:09.442Z,51.23
2022-10-09T21:35:44.524Z,51.33
2022-10-09T21:38:17.695Z,51.34
2022-10-09T21:40:45.169Z,51.30
2022-10-09T21:43:12.154Z,51.10
2022-10-09T21:45:39.723Z,51.06
2022-10-09T21:48:07.267Z,51.33
2022-10-09T21:50:36.320Z,51.27
2022-10-09T21:53:03.635Z,50.77
2022-10-09T21:55:30.351Z,51.13
2022-10-09T21:57:56.984Z,51.08
2022-10-09T22:00:23.737Z,51.24
2022-10-09T22:02:50.565Z,51.26
2022-10-09T22:05:17.542Z,50.98
2022-10-09T22:07:44.225Z,50.71
2022-10-09T22:10:10.946Z,51.17
2022-10-09T22:12:37.651Z,51.15
2022-10-09T22:15:05.141Z,50.83
2022-10-09T22:17:31.851Z,51.09
2022-10-09T22:19:58.579Z,50.66
2022-10-09T22:22:25.457Z,50.45
2022-10-09T22:24:52.290Z,51.05
2022-10-09T22:27:20.081Z,51.07
2022-10-09T22:29:46.826Z,50.83
2022-10-09T22:32:13.619Z,50.74
2022-10-09T22:34:40.327Z,50.68
2022-10-09T22:37:07.057Z,50.92
2022-10-09T22:39:33.820Z,50.88
2022-10-09T22:42:00.443Z,50.64
2022-10-09T22:44:27.250Z,50.97
2022-10-09T22:46:54.043Z,50.77
2022-10-09T22:49:20.843Z,50.52
2022-10-09T22:51:47.491Z,50.75
2022-10-09T22:54:14.292Z,50.74
2022-10-09T22:56:43.675Z,50.62
2022-10-09T22:59:11.820Z,50.59
2022-10-09T23:02:01.587Z,50.64
2022-10-09T23:04:29.234Z,50.90
2022-10-09T23:06:57.570Z,50.90
2022-10-09T23:09:26.550Z,50.75
2022-10-09T23:11:53.424Z,50.81
2022-10-09T23:14:20.395Z,50.57
2022-10-09T23:16:47.183Z,50.54
2022-10-09T23:19:13.885Z,50.91
2022-10-09T23:21:42.547Z,50.88
2022-10-09T23:24:11.409Z,50.71
2022-10-09T23:26:38.504Z,50.49
2022-10-09T23:29:07.651Z,50.71
2022-10-09T23:31:35.652Z,50.69
2022-10-09T23:34:03.508Z,50.71
2022-10-09T23:36:30.239Z,50.82
2022-10-09T23:38:57.885Z,50.90
2022-10-09T23:41:26.485Z,50.72
2022-10-09T23:43:53.116Z,50.61
2022-10-09T23:46:27.950Z,51.14
2022-10-09T23:48:55.756Z,50.81
2022-10-09T23:51:23.711Z,50.77
2022-10-09T23:53:50.622Z,50.81
2022-10-09T23:56:25.930Z,51.13
2022-10-09T23:58:53.059Z,50.82
